CYHZ/YHZ METAR and TAF weather

Enter ICAO airport designator
Station Type Date Time Source
CYHZ METAR 2021/04/17 02:00 UTC NOAA

CYHZ 170200Z 09017KT 4SM -RASN OVC008 01/01 A2979 RMK ST8 SLP096


Station Type Date Time Source
CYHZ Decoded METAR 2021/04/17 02:00 UTC NOAA

Halifax International Airport , Canada (CYHZ) 44-53N 063-30W
Apr 16, 2021 - 10:00 PM EDT / 2021.04.17 0200 UTC
Wind: from the E (090 degrees) at 20 MPH (17 KT):0
Visibility: 4 mile(s):0
Sky conditions: overcast
Weather: light rain, snow
Temperature: 33 F (1 C)
Windchill: 21 F (-6 C):1
Dew Point: 33 F (1 C)
Relative Humidity: 100%
Pressure (altimeter): 29.79 in. Hg (1008 hPa)
ob: CYHZ 170200Z 09017KT 4SM -RASN OVC008 01/01 A2979 RMK ST8 SLP096
cycle: 2

Station Type Date Time Source
CYHZ TAF 2021/04/17 03:42 UTC NOAA

TAF TAF CYHZ 170239Z 1703/1724 09015G25KT 2SM -SNRA OVC007
TEMPO 1703/1712 P6SM -RASN OVC010 PROB30 1704/1712 3/4SM -SHSN
FM171200 10015G25KT 3SM -DZ -SN BR OVC005
FM171600 10015G25KT P6SM SCT006 BKN015
FM172000 10010G20KT 5SM -RA BR SCT006 OVC015
FM172300 08012G22KT 3SM -RA BR OVC004
RMK NXT FCST BY 170600Z

Example: see airport list